createdAt,value
2019-03-22T15:02:56.046Z,2.80
2019-03-22T15:15:59.372Z,3.50
2019-03-22T15:19:20.627Z,4.30
2019-03-22T15:22:42.544Z,4.10
2019-03-22T15:26:06.042Z,4.37
2019-03-22T15:32:18.507Z,4.90
2019-03-22T15:35:38.364Z,4.47
2019-03-22T15:38:43.488Z,3.93
2019-03-22T15:41:46.877Z,4.33
2019-03-22T15:44:50.308Z,4.53
2019-03-22T15:47:53.634Z,3.63
2019-03-22T15:50:57.008Z,4.47
2019-03-22T15:54:00.389Z,4.53
2019-03-22T15:57:03.891Z,4.30
2019-03-22T16:00:18.508Z,4.03
2019-03-22T16:03:21.867Z,4.77
2019-03-22T16:06:25.249Z,4.30
2019-03-22T16:09:28.618Z,4.03
2019-03-22T16:12:32.013Z,4.37
2019-03-22T16:15:35.388Z,4.90
2019-03-22T16:18:38.771Z,4.90
2019-03-22T16:21:42.155Z,4.57
2019-03-22T16:24:45.836Z,4.90
2019-03-22T16:27:49.241Z,4.63
2019-03-22T16:30:52.630Z,4.57
2019-03-22T16:33:56.034Z,4.37
2019-03-22T16:36:59.896Z,4.13
2019-03-22T16:40:04.761Z,4.70
2019-03-22T16:43:08.120Z,4.70
2019-03-22T16:46:11.610Z,4.07
2019-03-22T16:49:15.997Z,4.60
2019-03-22T16:52:19.376Z,4.40
2019-03-22T16:55:24.047Z,4.20
2019-03-22T16:58:27.742Z,3.90
2019-03-22T17:01:31.167Z,5.00
2019-03-22T17:04:34.575Z,5.17
2019-03-22T17:07:37.950Z,5.00
2019-03-22T17:10:41.668Z,5.03
2019-03-22T17:13:45.046Z,4.90
2019-03-22T17:16:48.778Z,5.00
2019-03-22T17:19:52.146Z,3.60
2019-03-22T17:22:55.544Z,4.03
2019-03-22T17:25:58.922Z,4.37
2019-03-22T17:29:02.302Z,3.90
2019-03-22T17:32:05.773Z,4.83
2019-03-22T17:35:10.097Z,4.97
2019-03-22T17:38:13.537Z,4.97
2019-03-22T17:41:16.967Z,5.10
2019-03-22T17:44:20.982Z,5.00
2019-03-22T17:47:24.361Z,5.40
2019-03-22T17:50:28.094Z,5.10
2019-03-22T17:53:31.537Z,5.93
2019-03-22T17:56:34.913Z,5.80
2019-03-22T17:59:38.291Z,5.50
2019-03-22T18:02:41.745Z,6.00
2019-03-22T18:05:45.122Z,6.93
2019-03-22T18:08:48.513Z,7.43
2019-03-22T18:11:51.885Z,6.43
2019-03-22T18:14:55.268Z,6.03
2019-03-22T18:17:58.989Z,6.90
2019-03-22T18:21:02.373Z,6.00
2019-03-22T18:24:05.757Z,6.90
2019-03-22T18:27:09.135Z,5.97
2019-03-22T18:30:14.757Z,6.40
2019-03-22T18:33:18.444Z,6.43
2019-03-22T18:36:21.895Z,5.83
2019-03-22T18:39:25.276Z,5.27
2019-03-22T18:42:28.660Z,5.40
2019-03-22T18:45:32.073Z,5.30
2019-03-22T18:48:35.445Z,5.30
2019-03-22T18:51:39.770Z,5.17
2019-03-22T18:54:43.204Z,4.57
2019-03-22T18:57:46.625Z,5.90
2019-03-22T19:00:50.026Z,5.17
2019-03-22T19:03:54.728Z,5.37
2019-03-22T19:06:58.102Z,4.90
2019-03-22T19:10:01.489Z,5.20
2019-03-22T19:13:04.867Z,4.47
2019-03-22T19:16:08.270Z,4.97
2019-03-22T19:19:11.707Z,4.70
2019-03-22T19:22:15.134Z,4.93
2019-03-22T19:25:18.510Z,4.47
2019-03-22T19:28:21.894Z,4.87
2019-03-22T19:31:25.319Z,4.77
2019-03-22T19:34:28.729Z,5.47
2019-03-22T19:37:32.122Z,5.47
2019-03-22T19:40:35.501Z,6.40
2019-03-22T19:43:39.942Z,6.03
2019-03-22T19:46:43.325Z,6.10
2019-03-22T19:49:46.728Z,5.40
2019-03-22T19:52:50.418Z,5.10
2019-03-22T19:55:53.876Z,4.97
2019-03-22T19:58:57.248Z,5.03
2019-03-22T20:02:00.645Z,5.47
2019-03-22T20:05:06.593Z,5.77
2019-03-22T20:08:13.746Z,6.20
2019-03-22T20:11:15.685Z,6.23
2019-03-22T20:14:19.066Z,6.90
2019-03-22T20:17:22.451Z,6.90
2019-03-22T20:20:25.914Z,7.23
2019-03-22T20:24:35.379Z,7.43
2019-03-22T20:27:40.433Z,7.37
2019-03-22T20:30:44.997Z,7.60
2019-03-22T20:33:49.768Z,7.43
2019-03-22T20:36:54.791Z,7.63
2019-03-22T20:39:59.295Z,8.20
2019-03-22T20:43:04.198Z,9.33
2019-03-22T20:46:09.315Z,9.83
2019-03-22T20:49:14.037Z,10.90
2019-03-22T20:52:18.479Z,10.77
2019-03-22T20:55:22.878Z,11.27
2019-03-22T20:58:27.405Z,9.87
2019-03-22T21:01:32.056Z,8.50
2019-03-22T21:04:36.643Z,10.23
2019-03-22T21:07:42.410Z,10.40
2019-03-22T21:10:46.978Z,8.60
2019-03-22T21:13:51.782Z,8.60
2019-03-22T21:16:56.445Z,9.40
2019-03-22T21:20:00.915Z,9.87
2019-03-22T21:23:05.676Z,9.03
2019-03-22T21:26:10.290Z,10.00
2019-03-22T21:29:15.261Z,9.03
2019-03-22T21:32:19.788Z,9.10
2019-03-22T21:35:24.280Z,8.30
2019-03-22T21:38:28.885Z,8.40
2019-03-22T21:41:33.567Z,8.80
2019-03-22T21:44:38.469Z,8.23
2019-03-22T21:47:43.127Z,9.87
2019-03-22T21:50:48.973Z,9.83
2019-03-22T21:53:53.474Z,8.97
2019-03-22T21:56:58.361Z,9.17
2019-03-22T22:00:03.314Z,9.10
2019-03-22T22:03:07.860Z,9.07
2019-03-22T22:06:12.711Z,8.73
2019-03-22T22:09:18.164Z,8.83
2019-03-22T22:12:22.994Z,8.50
2019-03-22T22:15:28.445Z,8.93
2019-03-22T22:18:36.082Z,8.40
2019-03-22T22:21:41.177Z,8.90
2019-03-22T22:24:45.700Z,9.63
2019-03-22T22:27:50.512Z,9.40
2019-03-22T22:30:55.042Z,9.43
2019-03-22T22:34:00.434Z,9.60
2019-03-22T22:37:04.815Z,8.93
2019-03-22T22:40:09.700Z,9.53
2019-03-22T22:43:14.936Z,8.70
2019-03-22T22:46:19.718Z,10.17
2019-03-22T22:49:24.293Z,9.43
2019-03-22T22:52:28.761Z,10.53
2019-03-22T22:55:33.246Z,9.37
2019-03-22T22:58:37.893Z,10.30
2019-03-22T23:01:42.821Z,10.37
2019-03-22T23:04:47.203Z,10.97
2019-03-22T23:07:51.782Z,10.57
2019-03-22T23:10:56.554Z,11.00
2019-03-22T23:14:01.055Z,10.70
2019-03-22T23:17:05.594Z,10.23
2019-03-22T23:20:11.149Z,9.23
2019-03-22T23:23:16.159Z,8.47
2019-03-22T23:26:20.585Z,8.70
2019-03-22T23:29:24.988Z,9.70
2019-03-22T23:32:29.424Z,8.93
2019-03-22T23:35:33.853Z,8.43
2019-03-22T23:38:38.734Z,8.40
2019-03-22T23:41:43.143Z,8.37
2019-03-22T23:44:49.654Z,8.50
2019-03-22T23:47:54.301Z,8.47
2019-03-22T23:51:00.116Z,8.60
2019-03-22T23:54:04.599Z,8.10
2019-03-22T23:57:09.098Z,7.57
